Whiteville, NC (28472)

2:29 AM EDT on September 01, 2016 (GMT -0400)
CCSkywatch | | Change Station

Elev 91 ft 34.41 °N, 78.75 °W | Updated 0 second ago

Clear
Clear
70.8 °F
Feels Like 70.8 °F
N
0.0
Wind Variable Wind from North
Gusts 0.0 mph

Today
High -- | Low -- °F
--% Chance of Precip.
Yesterday
High -- | Low -- °F
Precip. -- in
Pressure 29.89 in
Visibility 5.0 miles
Clouds Clear
Dew Point 69 °F
Humidity 95%
Rainfall 0.00 in
Snow Depth Not available.
6:48 AM 7:40 PM
Waning Crescent, 0% visible
METAR KCPC 010620Z AUTO 00000KT 5SM BR CLR 22/21 A2989 RMK AO2 T02190214
Pressure 29.89 in
Visibility 5.0 miles
Clouds Clear
Dew Point 69 °F
Humidity 95%
Rainfall 0.00 in
Snow Depth Not available.
6:48 AM 7:40 PM
Waning Crescent, 0% visible
METAR KCPC 010620Z AUTO 00000KT 5SM BR CLR 22/21 A2989 RMK AO2 T02190214

10-Day Weather Forecast

Almanac

Astronomy

Sep. 01, 2016 Rise Set
Actual Time
Civil Twilight
Nautical Twilight
Astronomical Twilight
Moon
Length of Visible Light
Length of Day
Tomorrow will be .
, % of the Moon is Illuminated

Today's Extremes

State Highs State Lows

Community

WunderPhotos

Upload Photos

1,936,313 photos uploaded!

WunderBlog® & News

Nearby

Air Quality

  Air Quality AQ Index Pollutant
Not available.

Snow Depth

Station Depth Elevation

Earthquake Activity

City Distance Mag. Time & Date
Minimum magnitude displayed is 2.5.

Coastal Water Temperatures

Place Temperature

Stations

Nearby Weather Stations

Station Location Temp. Windchill Dew Point Humidity Wind Precip. Elev Updated Type
                   

Watches & Warnings

There are currently no watches in effect.